createdAt,value
2023-04-08T00:01:05.536Z,103214.44
2023-04-08T00:04:14.997Z,103216.50
2023-04-08T00:07:21.577Z,103213.97
2023-04-08T00:10:26.645Z,103215.63
2023-04-08T00:13:31.718Z,103222.41
2023-04-08T00:16:36.789Z,103219.09
2023-04-08T00:19:41.856Z,103220.88
2023-04-08T00:22:48.303Z,103221.69
2023-04-08T00:25:53.442Z,103224.94
2023-04-08T00:28:58.491Z,103219.09
2023-04-08T00:32:04.137Z,103227.41
2023-04-08T00:35:09.620Z,103220.81
2023-04-08T00:38:16.203Z,103222.59
2023-04-08T00:41:21.396Z,103225.19
2023-04-08T00:44:26.518Z,103224.38
2023-04-08T00:47:31.782Z,103216.75
2023-04-08T00:50:36.973Z,103220.19
2023-04-08T00:53:43.492Z,103219.22
2023-04-08T00:56:48.596Z,103227.66
2023-04-08T00:59:53.594Z,103220.19
2023-04-08T01:03:03.967Z,103220.88
2023-04-08T01:06:14.983Z,103222.78
2023-04-08T01:09:24.523Z,103228.69
2023-04-08T01:12:32.177Z,103221.16
2023-04-08T01:15:41.377Z,103232.28
2023-04-08T01:18:47.287Z,103221.22
2023-04-08T01:21:52.707Z,103222.25
2023-04-08T01:25:04.238Z,103223.81
2023-04-08T01:28:12.961Z,103217.03
2023-04-08T01:31:18.704Z,103220.56
2023-04-08T01:34:24.637Z,103219.72
2023-04-08T01:37:30.857Z,103233.28
2023-04-08T01:40:37.484Z,103229.94
2023-04-08T01:43:45.184Z,103231.50
2023-04-08T01:46:51.059Z,103224.63
2023-04-08T01:49:56.846Z,103223.09
2023-04-08T01:53:02.752Z,103226.56
2023-04-08T01:56:11.066Z,103226.59
2023-04-08T01:59:22.578Z,103226.59
2023-04-08T02:02:28.720Z,103231.59
2023-04-08T02:05:34.299Z,103230.84
2023-04-08T02:08:40.904Z,103242.75
2023-04-08T02:11:46.002Z,103241.97
2023-04-08T02:14:53.426Z,103236.16
2023-04-08T02:18:07.952Z,103230.97
2023-04-08T02:21:15.984Z,103235.06
2023-04-08T02:24:21.469Z,103227.84
2023-04-08T02:27:27.128Z,103241.97
2023-04-08T02:30:33.871Z,103240.22
2023-04-08T02:33:39.485Z,103235.88
2023-04-08T02:36:46.278Z,103234.25
2023-04-08T02:39:52.551Z,103236.53
2023-04-08T02:42:58.009Z,103237.53
2023-04-08T02:46:06.323Z,103232.34
2023-04-08T02:49:13.036Z,103244.25
2023-04-08T02:52:18.116Z,103235.00
2023-04-08T02:55:24.335Z,103239.19
2023-04-08T02:58:29.385Z,103245.22
2023-04-08T03:01:36.194Z,103235.91
2023-04-08T03:04:41.268Z,103242.75
2023-04-08T03:07:46.351Z,103248.50
2023-04-08T03:10:51.747Z,103246.09
2023-04-08T03:13:56.786Z,103247.00
2023-04-08T03:17:03.263Z,103246.97
2023-04-08T03:20:09.545Z,103253.88
2023-04-08T03:23:14.802Z,103253.00
2023-04-08T03:26:19.842Z,103251.09
2023-04-08T03:29:24.879Z,103242.94
2023-04-08T03:32:31.969Z,103251.38
2023-04-08T03:35:37.518Z,103245.47
2023-04-08T03:38:42.596Z,103244.59
2023-04-08T03:41:47.765Z,103241.22
2023-04-08T03:44:52.819Z,103247.75
2023-04-08T03:47:59.448Z,103256.28
2023-04-08T03:51:04.644Z,103251.22
2023-04-08T03:54:09.780Z,103249.44
2023-04-08T03:57:14.892Z,103255.22
2023-04-08T04:00:19.972Z,103252.59
2023-04-08T04:03:26.648Z,103254.03
2023-04-08T04:06:31.997Z,103260.78
2023-04-08T04:09:37.125Z,103259.22
2023-04-08T04:12:42.618Z,103265.97
2023-04-08T04:15:47.920Z,103267.63
2023-04-08T04:18:54.660Z,103267.56
2023-04-08T04:21:59.769Z,103266.56
2023-04-08T04:25:05.032Z,103268.28
2023-04-08T04:28:11.012Z,103270.03
2023-04-08T04:31:21.856Z,103279.97
2023-04-08T04:34:28.560Z,103286.00
2023-04-08T04:37:33.538Z,103278.41
2023-04-08T04:40:38.694Z,103282.53
2023-04-08T04:43:43.677Z,103273.28
2023-04-08T04:46:48.803Z,103277.50
2023-04-08T04:49:55.573Z,103279.97
2023-04-08T04:53:00.900Z,103280.13
2023-04-08T04:56:06.498Z,103273.34
2023-04-08T04:59:11.609Z,103280.25
2023-04-08T05:02:16.785Z,103281.97
2023-04-08T05:05:23.414Z,103280.59
2023-04-08T05:08:28.512Z,103282.06
2023-04-08T05:11:33.594Z,103284.78
2023-04-08T05:14:38.735Z,103288.97
2023-04-08T05:17:44.929Z,103291.44
2023-04-08T05:20:51.417Z,103295.63
2023-04-08T05:23:56.903Z,103283.22
2023-04-08T05:27:02.145Z,103278.78
2023-04-08T05:30:08.755Z,103287.47
2023-04-08T05:33:13.861Z,103296.88
2023-04-08T05:36:20.428Z,103296.13
2023-04-08T05:39:25.466Z,103297.81
2023-04-08T05:42:30.544Z,103299.66
2023-04-08T05:45:35.704Z,103295.22
2023-04-08T05:48:40.988Z,103299.16
2023-04-08T05:51:47.971Z,103305.16
2023-04-08T05:54:53.097Z,103311.13
2023-04-08T05:57:58.201Z,103317.34
2023-04-08T06:01:03.272Z,103305.06
2023-04-08T06:04:08.538Z,103306.88
2023-04-08T06:07:15.110Z,103315.88
2023-04-08T06:10:20.632Z,103317.09
2023-04-08T06:13:26.026Z,103322.72
2023-04-08T06:16:31.328Z,103313.25
2023-04-08T06:19:37.188Z,103315.22
2023-04-08T06:22:43.704Z,103312.78
2023-04-08T06:25:48.806Z,103308.72
2023-04-08T06:28:54.136Z,103311.69
2023-04-08T06:31:59.197Z,103322.47
2023-04-08T06:35:04.293Z,103320.22
2023-04-08T06:38:11.277Z,103327.53
2023-04-08T06:41:16.313Z,103330.06
2023-04-08T06:44:21.566Z,103332.28
2023-04-08T06:47:26.801Z,103339.47
2023-04-08T06:50:31.943Z,103328.63
2023-04-08T06:53:38.988Z,103333.78
2023-04-08T06:56:43.996Z,103328.09
2023-04-08T06:59:49.046Z,103327.50
2023-04-08T07:02:54.279Z,103326.66
2023-04-08T07:05:59.590Z,103332.44
2023-04-08T07:09:06.280Z,103330.41
2023-04-08T07:12:11.434Z,103332.66
2023-04-08T07:15:16.768Z,103330.75
2023-04-08T07:18:22.785Z,103323.63
2023-04-08T07:21:27.871Z,103330.41
2023-04-08T07:24:34.445Z,103336.59
2023-04-08T07:27:39.533Z,103335.31
2023-04-08T07:30:44.722Z,103338.13
2023-04-08T07:33:49.742Z,103350.50
2023-04-08T07:36:54.672Z,103349.34
2023-04-08T07:40:01.254Z,103340.47
2023-04-08T07:43:06.882Z,103338.69
2023-04-08T07:46:14.244Z,103343.19
2023-04-08T07:49:19.297Z,103347.06
2023-04-08T07:52:24.619Z,103343.84
2023-04-08T07:55:34.678Z,103343.59
2023-04-08T07:58:40.500Z,103343.53
2023-04-08T08:01:47.015Z,103344.44
2023-04-08T08:04:52.343Z,103346.06
2023-04-08T08:07:57.585Z,103344.34
2023-04-08T08:11:04.108Z,103357.44
2023-04-08T08:14:09.112Z,103352.88
2023-04-08T08:17:14.496Z,103349.59
2023-04-08T08:20:19.697Z,103352.25
2023-04-08T08:23:26.087Z,103345.53
2023-04-08T08:26:32.573Z,103347.84
2023-04-08T08:29:38.210Z,103355.19
2023-04-08T08:32:43.617Z,103351.63
2023-04-08T08:35:48.729Z,103354.03
2023-04-08T08:38:54.527Z,103351.59
2023-04-08T08:42:01.442Z,103342.94
2023-04-08T08:45:08.248Z,103349.88
2023-04-08T08:48:14.101Z,103345.94
2023-04-08T08:51:19.092Z,103348.56
2023-04-08T08:54:24.365Z,103354.41
2023-04-08T08:57:31.700Z,103356.59
2023-04-08T09:00:37.647Z,103353.56
2023-04-08T09:03:43.003Z,103345.84
2023-04-08T09:06:50.326Z,103345.00
2023-04-08T09:09:56.113Z,103354.00
2023-04-08T09:13:02.595Z,103337.41
2023-04-08T09:16:11.857Z,103341.69
2023-04-08T09:19:17.331Z,103341.47
2023-04-08T09:22:22.450Z,103333.38
2023-04-08T09:25:28.211Z,103333.72
2023-04-08T09:28:34.601Z,103323.97
2023-04-08T09:31:41.793Z,103330.75
2023-04-08T09:34:47.539Z,103335.09
2023-04-08T09:37:52.870Z,103327.25
2023-04-08T09:40:57.998Z,103333.53
2023-04-08T09:44:05.922Z,103320.22
2023-04-08T09:47:21.337Z,103329.69
2023-04-08T09:50:29.753Z,103325.97
2023-04-08T09:53:38.314Z,103338.00
2023-04-08T09:56:52.985Z,103333.28
2023-04-08T10:00:09.901Z,103337.22
2023-04-08T10:03:29.775Z,103333.66
2023-04-08T10:06:35.767Z,103333.69
2023-04-08T10:09:43.144Z,103332.88
2023-04-08T10:12:48.218Z,103333.84
2023-04-08T10:16:25.283Z,103332.94
2023-04-08T10:19:41.406Z,103329.97
2023-04-08T10:22:50.039Z,103321.47
2023-04-08T10:25:55.765Z,103322.72
2023-04-08T10:29:46.459Z,103318.03
2023-04-08T10:32:53.044Z,103319.53
2023-04-08T10:36:04.509Z,103321.47
2023-04-08T10:39:09.694Z,103318.28
2023-04-08T10:42:14.709Z,103319.28
2023-04-08T10:45:19.749Z,103312.63
2023-04-08T10:48:29.022Z,103313.00
2023-04-08T10:51:35.235Z,103300.28
2023-04-08T10:54:40.799Z,103311.97
2023-04-08T10:57:45.868Z,103312.94
2023-04-08T11:00:51.397Z,103305.94
2023-04-08T11:03:57.980Z,103301.47
2023-04-08T11:07:08.562Z,103288.31
2023-04-08T11:10:14.013Z,103291.59
2023-04-08T11:13:19.354Z,103295.69
2023-04-08T11:16:24.558Z,103286.53
2023-04-08T11:19:31.076Z,103292.72
2023-04-08T11:22:36.115Z,103289.34
2023-04-08T11:25:44.660Z,103299.50
2023-04-08T11:28:51.900Z,103287.41
2023-04-08T11:31:57.276Z,103281.81
2023-04-08T11:35:03.966Z,103280.88
2023-04-08T11:38:10.812Z,103290.38
2023-04-08T11:41:16.591Z,103280.56
2023-04-08T11:44:21.806Z,103290.66
2023-04-08T11:47:33.563Z,103289.03
2023-04-08T11:50:42.274Z,103286.31
2023-04-08T11:53:49.299Z,103288.47
2023-04-08T11:56:54.735Z,103282.56
2023-04-08T11:59:59.748Z,103277.81
2023-04-08T12:03:05.023Z,103273.31
2023-04-08T12:06:11.626Z,103269.84
2023-04-08T12:09:16.855Z,103264.53
2023-04-08T12:12:22.311Z,103261.97
2023-04-08T12:15:27.398Z,103265.44
2023-04-08T12:18:32.365Z,103267.06
2023-04-08T12:21:39.499Z,103264.75
2023-04-08T12:24:44.883Z,103259.00
2023-04-08T12:27:49.920Z,103245.22
2023-04-08T12:30:55.096Z,103244.78
2023-04-08T12:34:00.165Z,103241.72
2023-04-08T12:37:06.906Z,103234.09
2023-04-08T12:40:13.780Z,103240.69
2023-04-08T12:43:19.021Z,103234.66
2023-04-08T12:46:24.140Z,103226.47
2023-04-08T12:49:29.333Z,103227.19
2023-04-08T12:52:36.734Z,103219.63
2023-04-08T12:55:43.828Z,103229.72
2023-04-08T12:58:49.890Z,103223.78
2023-04-08T13:01:55.450Z,103227.06
2023-04-08T13:05:00.921Z,103237.25
2023-04-08T13:08:07.644Z,103222.97
2023-04-08T13:11:13.565Z,103225.47
2023-04-08T13:14:18.763Z,103220.16
2023-04-08T13:17:23.942Z,103219.25
2023-04-08T13:20:30.034Z,103214.69
2023-04-08T13:23:36.863Z,103219.00
2023-04-08T13:26:41.906Z,103213.69
2023-04-08T13:29:47.027Z,103212.53
2023-04-08T13:32:52.122Z,103216.03
2023-04-08T13:35:57.405Z,103212.59
2023-04-08T13:39:03.991Z,103212.25
2023-04-08T13:42:09.352Z,103210.50
2023-04-08T13:45:14.720Z,103207.66
2023-04-08T13:48:19.761Z,103209.72
2023-04-08T13:51:24.867Z,103211.09
2023-04-08T13:54:31.487Z,103201.09
2023-04-08T13:57:36.687Z,103197.50
2023-04-08T14:00:41.758Z,103196.50
2023-04-08T14:03:46.859Z,103202.53
2023-04-08T14:06:53.342Z,103198.69
2023-04-08T14:10:00.122Z,103195.19
2023-04-08T14:13:05.141Z,103194.16
2023-04-08T14:16:10.336Z,103198.25
2023-04-08T14:19:18.322Z,103197.44
2023-04-08T14:22:23.343Z,103181.94
2023-04-08T14:25:29.785Z,103200.97
2023-04-08T14:28:37.031Z,103190.53
2023-04-08T14:31:42.193Z,103195.19
2023-04-08T14:34:47.310Z,103176.16
2023-04-08T14:37:52.334Z,103184.91
2023-04-08T14:40:59.990Z,103181.53
2023-04-08T14:44:05.530Z,103174.25
2023-04-08T14:47:12.491Z,103176.66
2023-04-08T14:50:17.707Z,103175.38
2023-04-08T14:53:23.422Z,103169.47
2023-04-08T14:56:29.893Z,103174.91
2023-04-08T14:59:35.143Z,103170.59
2023-04-08T15:02:40.220Z,103172.31
2023-04-08T15:05:45.548Z,103177.16
2023-04-08T15:08:50.811Z,103171.53
2023-04-08T15:11:58.504Z,103160.41
2023-04-08T15:15:04.599Z,103162.06
2023-04-08T15:18:12.945Z,103166.84
2023-04-08T15:21:18.065Z,103150.41
2023-04-08T15:24:23.142Z,103163.00
2023-04-08T15:27:29.553Z,103169.25
2023-04-08T15:30:36.205Z,103163.47
2023-04-08T15:33:42.969Z,103160.38
2023-04-08T15:36:47.956Z,103158.47
2023-04-08T15:39:53.801Z,103160.84
2023-04-08T15:43:00.407Z,103170.03
2023-04-08T15:46:05.624Z,103158.63
2023-04-08T15:49:11.186Z,103157.97
2023-04-08T15:52:16.893Z,103161.13
2023-04-08T15:55:21.947Z,103159.56
2023-04-08T15:58:28.516Z,103158.47
2023-04-08T16:01:34.663Z,103154.84
2023-04-08T16:04:39.936Z,103147.97
2023-04-08T16:07:45.041Z,103149.41
2023-04-08T16:10:50.090Z,103163.00
2023-04-08T16:13:57.392Z,103158.22
2023-04-08T16:17:02.384Z,103159.22
2023-04-08T16:20:08.473Z,103156.44
2023-04-08T16:23:15.570Z,103156.56
2023-04-08T16:26:21.946Z,103164.88
2023-04-08T16:29:28.746Z,103169.50
2023-04-08T16:32:34.037Z,103167.59
2023-04-08T16:35:39.973Z,103166.31
2023-04-08T16:38:45.015Z,103168.53
2023-04-08T16:41:50.031Z,103179.81
2023-04-08T16:44:59.642Z,103166.03
2023-04-08T16:48:04.851Z,103172.44
2023-04-08T16:51:10.901Z,103166.84
2023-04-08T16:54:15.917Z,103173.91
2023-04-08T16:57:21.312Z,103179.38
2023-04-08T17:00:27.951Z,103178.75
2023-04-08T17:03:33.122Z,103186.47
2023-04-08T17:06:38.349Z,103175.53
2023-04-08T17:09:43.431Z,103190.75
2023-04-08T17:12:48.544Z,103185.88
2023-04-08T17:15:54.950Z,103197.09
2023-04-08T17:19:00.270Z,103204.41
2023-04-08T17:22:05.563Z,103202.69
2023-04-08T17:25:11.606Z,103201.78
2023-04-08T17:28:19.920Z,103199.75
2023-04-08T17:31:26.428Z,103198.63
2023-04-08T17:34:33.125Z,103202.41
2023-04-08T17:37:38.202Z,103209.91
2023-04-08T17:40:43.303Z,103215.31
2023-04-08T17:43:48.466Z,103217.25
2023-04-08T17:46:55.241Z,103216.69
2023-04-08T17:50:00.412Z,103221.47
2023-04-08T17:53:05.665Z,103226.44
2023-04-08T17:56:11.948Z,103227.72
2023-04-08T17:59:16.952Z,103222.91
2023-04-08T18:02:24.876Z,103225.19
2023-04-08T18:05:30.428Z,103230.03
2023-04-08T18:08:35.484Z,103228.88
2023-04-08T18:11:40.483Z,103223.91
2023-04-08T18:14:45.533Z,103229.25
2023-04-08T18:17:53.538Z,103239.16
2023-04-08T18:20:58.864Z,103232.13
2023-04-08T18:24:04.149Z,103239.41
2023-04-08T18:27:09.970Z,103228.41
2023-04-08T18:30:15.474Z,103230.94
2023-04-08T18:33:22.205Z,103233.53
2023-04-08T18:36:27.449Z,103232.38
2023-04-08T18:39:32.556Z,103238.69
2023-04-08T18:42:38.050Z,103228.06
2023-04-08T18:45:43.303Z,103239.03
2023-04-08T18:48:50.248Z,103234.44
2023-04-08T18:52:02.676Z,103229.13
2023-04-08T18:55:08.527Z,103236.00
2023-04-08T18:58:14.104Z,103235.22
2023-04-08T19:01:18.834Z,103241.59
2023-04-08T19:04:25.009Z,103237.63
2023-04-08T19:07:30.032Z,103238.91
2023-04-08T19:10:34.977Z,103231.41
2023-04-08T19:13:39.680Z,103239.44
2023-04-08T19:16:44.467Z,103226.03
2023-04-08T19:19:50.682Z,103237.19
2023-04-08T19:22:55.951Z,103240.34
2023-04-08T19:26:01.030Z,103244.13
2023-04-08T19:29:05.928Z,103247.13
2023-04-08T19:32:11.526Z,103238.94
2023-04-08T19:35:17.775Z,103244.50
2023-04-08T19:38:22.799Z,103242.75
2023-04-08T19:41:27.544Z,103238.31
2023-04-08T19:44:32.275Z,103238.06
2023-04-08T19:47:37.325Z,103243.13
2023-04-08T19:50:43.362Z,103240.13
2023-04-08T19:53:48.077Z,103233.25
2023-04-08T19:56:53.479Z,103243.38
2023-04-08T19:59:58.330Z,103239.91
2023-04-08T20:03:03.255Z,103234.63
2023-04-08T20:06:09.856Z,103235.53
2023-04-08T20:09:14.539Z,103242.88
2023-04-08T20:12:19.500Z,103245.56
2023-04-08T20:15:25.374Z,103243.56
2023-04-08T20:18:30.395Z,103237.41
2023-04-08T20:21:36.730Z,103239.81
2023-04-08T20:24:41.840Z,103246.47
2023-04-08T20:27:46.602Z,103245.50
2023-04-08T20:30:51.893Z,103243.69
2023-04-08T20:33:56.563Z,103243.69
2023-04-08T20:37:03.057Z,103247.56
2023-04-08T20:40:08.637Z,103241.91
2023-04-08T20:43:14.885Z,103244.63
2023-04-08T20:46:19.823Z,103235.19
2023-04-08T20:49:24.900Z,103245.22
2023-04-08T20:52:30.991Z,103240.88
2023-04-08T20:55:36.065Z,103240.19
2023-04-08T20:58:40.784Z,103234.28
2023-04-08T21:01:45.747Z,103232.75
2023-04-08T21:04:50.539Z,103239.22
2023-04-08T21:07:56.669Z,103232.19
2023-04-08T21:11:01.301Z,103241.94
2023-04-08T21:14:07.164Z,103241.78
2023-04-08T21:17:12.033Z,103244.25
2023-04-08T21:20:17.101Z,103248.31
2023-04-08T21:23:41.492Z,103247.13
2023-04-08T21:26:46.131Z,103251.13
2023-04-08T21:29:51.885Z,103249.25
2023-04-08T21:32:56.939Z,103246.94
2023-04-08T21:36:01.620Z,103246.22
2023-04-08T21:39:07.704Z,103243.09
2023-04-08T21:42:12.842Z,103241.19
2023-04-08T21:45:17.901Z,103246.94
2023-04-08T21:48:23.515Z,103248.03
2023-04-08T21:51:28.748Z,103240.19
2023-04-08T21:54:35.189Z,103236.47
2023-04-08T21:57:42.897Z,103249.97
2023-04-08T22:00:49.562Z,103235.53
2023-04-08T22:03:55.651Z,103252.72
2023-04-08T22:07:00.403Z,103245.94
2023-04-08T22:10:07.432Z,103250.88
2023-04-08T22:13:12.254Z,103252.03
2023-04-08T22:16:17.184Z,103253.44
2023-04-08T22:19:21.890Z,103255.44
2023-04-08T22:22:27.005Z,103252.28
2023-04-08T22:25:33.673Z,103261.72
2023-04-08T22:28:39.033Z,103256.91
2023-04-08T22:31:44.084Z,103260.56
2023-04-08T22:34:49.168Z,103251.63
2023-04-08T22:37:54.564Z,103257.09
2023-04-08T22:41:01.380Z,103250.53
2023-04-08T22:44:06.839Z,103246.22
2023-04-08T22:47:12.193Z,103246.00
2023-04-08T22:50:17.221Z,103245.94
2023-04-08T22:53:23.641Z,103249.03
2023-04-08T22:56:30.790Z,103242.09
2023-04-08T22:59:35.958Z,103244.34
2023-04-08T23:02:42.488Z,103251.72
2023-04-08T23:05:47.657Z,103249.69
2023-04-08T23:08:52.815Z,103248.97
2023-04-08T23:11:59.405Z,103249.13
2023-04-08T23:15:04.621Z,103238.38
2023-04-08T23:18:13.428Z,103234.06
2023-04-08T23:21:18.525Z,103241.31
2023-04-08T23:24:23.826Z,103242.84
2023-04-08T23:27:30.284Z,103235.19
2023-04-08T23:30:35.384Z,103240.97
2023-04-08T23:33:40.541Z,103245.13
2023-04-08T23:36:45.454Z,103235.59
2023-04-08T23:39:50.122Z,103243.28
2023-04-08T23:42:56.215Z,103229.41
2023-04-08T23:46:00.897Z,103233.50
2023-04-08T23:49:05.758Z,103230.56
2023-04-08T23:52:12.868Z,103239.84
2023-04-08T23:55:17.705Z,103225.91
2023-04-08T23:58:23.785Z,103227.69
